createdAt,value
2018-06-12T00:00:52.529Z,15.63
2018-06-12T00:03:22.696Z,16.87
2018-06-12T00:05:51.831Z,15.50
2018-06-12T00:08:21.107Z,16.30
2018-06-12T00:10:50.253Z,15.83
2018-06-12T00:13:19.337Z,16.50
2018-06-12T00:15:48.491Z,16.10
2018-06-12T00:18:19.419Z,15.87
2018-06-12T00:20:51.623Z,16.90
2018-06-12T00:23:20.792Z,16.83
2018-06-12T00:25:50.987Z,16.73
2018-06-12T00:28:20.174Z,17.00
2018-06-12T00:30:50.220Z,16.53
2018-06-12T00:33:20.137Z,16.53
2018-06-12T00:35:50.461Z,16.43
2018-06-12T00:38:20.384Z,16.77
2018-06-12T00:40:51.531Z,17.33
2018-06-12T00:43:20.686Z,17.13
2018-06-12T00:45:49.824Z,18.47
2018-06-12T00:48:19.371Z,17.97
2018-06-12T00:50:48.729Z,18.20
2018-06-12T00:53:17.881Z,17.37
2018-06-12T00:55:47.923Z,18.57
2018-06-12T00:58:17.898Z,17.83
2018-06-12T01:00:48.193Z,17.90
2018-06-12T01:03:18.257Z,18.70
2018-06-12T01:05:47.656Z,17.37
2018-06-12T01:08:17.071Z,17.60
2018-06-12T01:10:47.240Z,18.27
2018-06-12T01:13:16.527Z,18.10
2018-06-12T01:15:45.683Z,19.30
2018-06-12T01:18:15.786Z,18.87
2018-06-12T01:20:45.025Z,19.50
2018-06-12T01:23:14.116Z,18.17
2018-06-12T01:25:45.225Z,19.00
2018-06-12T01:28:15.314Z,19.20
2018-06-12T01:30:46.075Z,19.83
2018-06-12T01:33:16.007Z,19.50
2018-06-12T01:35:45.146Z,18.87
2018-06-12T01:38:15.237Z,20.07
2018-06-12T01:40:44.464Z,18.43
2018-06-12T01:43:13.687Z,19.07
2018-06-12T01:45:46.731Z,18.83
2018-06-12T01:48:17.034Z,19.00
2018-06-12T01:50:47.134Z,18.63
2018-06-12T01:53:17.806Z,19.60
2018-06-12T01:55:47.713Z,19.53
2018-06-12T01:58:17.521Z,17.93
2018-06-12T02:00:47.709Z,20.33
2018-06-12T02:03:18.739Z,20.37
2018-06-12T02:05:47.873Z,19.57
2018-06-12T02:08:18.075Z,19.40
2018-06-12T02:10:47.478Z,20.30
2018-06-12T02:13:18.129Z,20.23
2018-06-12T02:15:47.551Z,20.43
2018-06-12T02:18:17.687Z,20.00
2018-06-12T02:20:47.878Z,22.03
2018-06-12T02:23:17.239Z,20.47
2018-06-12T02:25:48.779Z,19.87
2018-06-12T02:28:17.856Z,21.07
2018-06-12T02:30:47.802Z,20.63
2018-06-12T02:33:17.098Z,20.07
2018-06-12T02:35:46.263Z,21.13
2018-06-12T02:38:16.129Z,20.70
2018-06-12T02:40:45.454Z,21.00
2018-06-12T02:43:14.871Z,20.77
2018-06-12T02:45:46.902Z,20.67
2018-06-12T02:48:16.274Z,21.13
2018-06-12T02:50:46.679Z,20.10
2018-06-12T02:53:15.944Z,21.03
2018-06-12T02:55:46.256Z,21.70
2018-06-12T02:58:16.468Z,21.57
2018-06-12T03:00:45.636Z,20.27
2018-06-12T03:03:15.573Z,20.97
2018-06-12T03:05:44.778Z,21.37
2018-06-12T03:08:15.558Z,21.07
2018-06-12T03:10:44.860Z,22.37
2018-06-12T03:13:15.372Z,22.17
2018-06-12T03:15:45.516Z,22.13
2018-06-12T03:18:14.799Z,20.27
2018-06-12T03:20:45.807Z,20.80
2018-06-12T03:23:15.078Z,20.60
2018-06-12T03:25:44.377Z,21.47
2018-06-12T03:28:13.644Z,21.43
2018-06-12T03:30:43.812Z,20.30
2018-06-12T03:33:15.447Z,20.83
2018-06-12T03:35:44.524Z,20.63
2018-06-12T03:38:13.578Z,22.33
2018-06-12T03:40:42.730Z,21.00
2018-06-12T03:43:11.857Z,21.37
2018-06-12T03:45:41.087Z,21.00
2018-06-12T03:48:10.581Z,22.10
2018-06-12T03:50:40.969Z,21.27
2018-06-12T03:53:11.190Z,22.20
2018-06-12T03:55:41.225Z,22.00
2018-06-12T03:58:11.371Z,21.30
2018-06-12T04:00:40.608Z,22.83
2018-06-12T04:03:12.564Z,22.47
2018-06-12T04:05:43.052Z,23.40
2018-06-12T04:08:13.097Z,22.70
2018-06-12T04:10:43.199Z,22.67
2018-06-12T04:13:13.484Z,22.43
2018-06-12T04:15:42.729Z,21.90
2018-06-12T04:18:12.655Z,22.87
2018-06-12T04:20:42.613Z,22.10
2018-06-12T04:23:11.750Z,22.63
2018-06-12T04:25:40.911Z,23.37
2018-06-12T04:28:10.609Z,22.17
2018-06-12T04:30:40.796Z,22.73
2018-06-12T04:33:09.981Z,21.77
2018-06-12T04:35:39.329Z,22.70
2018-06-12T04:38:10.260Z,22.43
2018-06-12T04:40:39.506Z,22.23
2018-06-12T04:43:09.476Z,21.30
2018-06-12T04:45:38.678Z,23.23
2018-06-12T04:48:08.600Z,23.70
2018-06-12T04:50:39.732Z,22.87
2018-06-12T04:53:08.978Z,22.17
2018-06-12T04:55:39.948Z,22.13
2018-06-12T04:58:09.200Z,22.33
2018-06-12T05:00:39.497Z,23.60
2018-06-12T05:03:12.003Z,23.37
2018-06-12T05:05:41.274Z,24.17
2018-06-12T05:08:10.498Z,24.20
2018-06-12T05:10:41.756Z,25.07
2018-06-12T05:13:12.138Z,25.47
2018-06-12T05:15:41.435Z,26.27
2018-06-12T05:18:11.518Z,28.23
2018-06-12T05:20:40.360Z,28.43
2018-06-12T05:23:10.811Z,31.30
2018-06-12T05:25:40.961Z,31.70
2018-06-12T05:28:12.069Z,32.13
2018-06-12T05:30:43.285Z,32.63
2018-06-12T05:33:13.799Z,32.13
2018-06-12T05:35:43.094Z,33.87
2018-06-12T05:38:13.246Z,33.43
2018-06-12T05:40:43.941Z,32.63
2018-06-12T05:43:13.258Z,31.87
2018-06-12T05:45:43.492Z,33.47
2018-06-12T05:48:13.293Z,33.57
2018-06-12T05:50:42.610Z,29.33
2018-06-12T05:53:11.780Z,29.70
2018-06-12T05:55:41.067Z,28.20
2018-06-12T05:58:11.250Z,26.50
2018-06-12T06:00:41.347Z,27.83
2018-06-12T06:03:13.540Z,28.20
2018-06-12T06:05:44.525Z,28.27
2018-06-12T06:08:15.464Z,26.07
2018-06-12T06:10:45.389Z,29.13
2018-06-12T06:13:16.047Z,28.70
2018-06-12T06:15:46.246Z,28.43
2018-06-12T06:18:15.423Z,27.33
2018-06-12T06:20:46.292Z,29.47
2018-06-12T06:23:16.417Z,33.07
2018-06-12T06:25:45.597Z,35.60
2018-06-12T06:28:15.456Z,36.80
2018-06-12T06:30:44.655Z,36.30
2018-06-12T06:33:13.728Z,35.23
2018-06-12T06:35:42.852Z,34.63
2018-06-12T06:38:12.635Z,35.30
2018-06-12T06:40:42.064Z,36.03
2018-06-12T06:43:11.251Z,35.87
2018-06-12T06:45:40.387Z,35.10
2018-06-12T06:48:10.862Z,36.50
2018-06-12T06:50:40.108Z,33.73
2018-06-12T06:53:10.080Z,33.73
2018-06-12T06:55:39.808Z,33.67
2018-06-12T06:58:08.949Z,32.13
2018-06-12T07:00:39.763Z,32.47
2018-06-12T07:03:10.096Z,30.70
2018-06-12T07:05:39.190Z,30.80
2018-06-12T07:08:08.253Z,31.90
2018-06-12T07:10:38.759Z,30.47
2018-06-12T07:13:08.797Z,30.47
2018-06-12T07:15:38.993Z,31.13
2018-06-12T07:18:08.174Z,31.57
2018-06-12T07:21:21.218Z,30.70
2018-06-12T07:23:50.484Z,30.23
2018-06-12T07:26:20.585Z,28.17
2018-06-12T07:28:50.112Z,28.23
2018-06-12T07:31:21.206Z,28.33
2018-06-12T07:33:50.373Z,28.43
2018-06-12T07:36:19.580Z,27.50
2018-06-12T07:38:49.598Z,27.93
2018-06-12T07:41:18.924Z,28.30
2018-06-12T07:43:48.075Z,27.53
2018-06-12T07:46:21.522Z,27.67
2018-06-12T07:48:51.662Z,26.97
2018-06-12T07:51:21.262Z,25.00
2018-06-12T07:53:51.282Z,25.37
2018-06-12T07:56:20.351Z,26.80
2018-06-12T07:58:49.693Z,27.23
2018-06-12T08:01:18.938Z,25.37
2018-06-12T08:03:48.220Z,26.60
2018-06-12T08:06:17.470Z,26.03
2018-06-12T08:08:46.568Z,25.90
2018-06-12T08:11:16.532Z,25.87
2018-06-12T08:13:45.585Z,25.30
2018-06-12T08:16:16.446Z,27.40
2018-06-12T08:18:47.712Z,26.20
2018-06-12T08:21:17.101Z,24.83
2018-06-12T08:23:46.543Z,25.80
2018-06-12T08:26:15.592Z,25.10
2018-06-12T08:28:45.549Z,24.13
2018-06-12T08:31:15.126Z,24.60
2018-06-12T08:33:44.187Z,25.83
2018-06-12T08:36:14.470Z,25.60
2018-06-12T08:38:44.635Z,24.20
2018-06-12T08:41:13.991Z,25.27
2018-06-12T08:43:44.462Z,25.50
2018-06-12T08:46:14.305Z,23.27
2018-06-12T08:48:43.657Z,23.50
2018-06-12T08:51:12.450Z,24.40
2018-06-12T08:53:41.741Z,22.97
2018-06-12T08:56:10.986Z,22.80
2018-06-12T08:58:40.153Z,22.90
2018-06-12T09:01:10.348Z,23.47
2018-06-12T09:03:41.442Z,22.33
2018-06-12T09:06:12.519Z,24.07
2018-06-12T09:08:41.680Z,22.40
2018-06-12T09:11:10.833Z,22.77
2018-06-12T09:13:40.799Z,24.73
2018-06-12T09:16:10.146Z,22.97
2018-06-12T09:18:40.171Z,23.40
2018-06-12T09:21:10.263Z,23.57
2018-06-12T09:23:39.426Z,23.00
2018-06-12T09:26:10.489Z,22.20
2018-06-12T09:28:40.795Z,22.87
2018-06-12T09:31:10.964Z,22.83
2018-06-12T09:33:40.053Z,22.73
2018-06-12T09:36:14.684Z,22.33
2018-06-12T09:38:44.572Z,22.40
2018-06-12T09:41:14.518Z,21.17
2018-06-12T09:43:43.318Z,22.47
2018-06-12T09:46:12.552Z,23.70
2018-06-12T09:48:42.664Z,23.83
2018-06-12T09:51:12.018Z,23.53
2018-06-12T09:53:42.110Z,22.97
2018-06-12T09:56:12.310Z,21.53
2018-06-12T09:58:41.366Z,22.93
2018-06-12T10:01:17.787Z,22.47
2018-06-12T10:03:48.212Z,23.67
2018-06-12T10:06:18.414Z,25.20
2018-06-12T10:08:48.557Z,22.80
2018-06-12T10:11:17.696Z,23.80
2018-06-12T10:13:46.989Z,23.73
2018-06-12T10:16:16.144Z,22.57
2018-06-12T10:18:45.287Z,23.23
2018-06-12T10:21:16.235Z,21.60
2018-06-12T10:23:45.540Z,22.83
2018-06-12T10:26:15.583Z,22.53
2018-06-12T10:28:44.635Z,22.80
2018-06-12T10:31:13.751Z,22.57
2018-06-12T10:33:44.782Z,22.57
2018-06-12T10:36:16.423Z,21.43
2018-06-12T10:38:46.575Z,21.73
2018-06-12T10:41:15.766Z,23.27
2018-06-12T10:43:45.901Z,23.33
2018-06-12T10:46:16.374Z,23.77
2018-06-12T10:48:46.738Z,21.43
2018-06-12T10:51:15.877Z,22.90
2018-06-12T10:53:47.582Z,22.37
2018-06-12T10:56:18.869Z,20.13
2018-06-12T10:58:49.429Z,21.37
2018-06-12T11:01:18.601Z,22.50
2018-06-12T11:03:47.953Z,22.33
2018-06-12T11:06:17.011Z,22.50
2018-06-12T11:08:46.894Z,22.33
2018-06-12T11:11:17.067Z,20.77
2018-06-12T11:13:47.116Z,20.97
2018-06-12T11:16:16.812Z,20.37
2018-06-12T11:18:46.113Z,20.73
2018-06-12T11:21:15.233Z,21.33
2018-06-12T11:23:46.582Z,19.83
2018-06-12T11:26:15.648Z,19.67
2018-06-12T11:28:45.443Z,21.43
2018-06-12T11:31:14.842Z,21.87
2018-06-12T11:33:43.954Z,20.63
2018-06-12T11:36:13.935Z,21.40
2018-06-12T11:38:44.574Z,19.67
2018-06-12T11:41:15.736Z,22.47
2018-06-12T11:43:44.775Z,22.57
2018-06-12T11:46:14.616Z,20.83
2018-06-12T11:48:44.504Z,22.00
2018-06-12T11:51:13.785Z,21.97
2018-06-12T11:53:42.952Z,22.83
2018-06-12T11:56:12.197Z,21.17
2018-06-12T11:58:41.776Z,21.50
2018-06-12T12:01:11.887Z,21.00
2018-06-12T12:03:41.091Z,22.63
2018-06-12T12:06:10.493Z,22.27
2018-06-12T12:08:39.711Z,23.23
2018-06-12T12:11:09.164Z,22.70
2018-06-12T12:13:39.182Z,22.83
2018-06-12T12:16:09.598Z,22.30
2018-06-12T12:18:39.539Z,22.43
2018-06-12T12:21:08.610Z,21.20
2018-06-12T12:23:38.663Z,20.17
2018-06-12T12:26:07.886Z,21.90
2018-06-12T12:28:38.107Z,22.27
2018-06-12T12:31:07.881Z,20.30
2018-06-12T12:33:37.085Z,19.80
2018-06-12T12:36:07.376Z,21.53
2018-06-12T12:38:36.579Z,22.57
2018-06-12T12:41:05.715Z,18.40
2018-06-12T12:43:35.031Z,19.73
2018-06-12T12:46:04.245Z,19.43
2018-06-12T12:48:33.336Z,21.40
2018-06-12T12:51:04.157Z,19.33
2018-06-12T12:53:34.177Z,17.70
2018-06-12T12:56:03.403Z,18.70
2018-06-12T12:58:32.555Z,18.30
2018-06-12T13:01:02.714Z,18.10
2018-06-12T13:03:32.387Z,17.77
2018-06-12T13:06:02.571Z,20.40
2018-06-12T13:08:32.683Z,18.77
2018-06-12T13:11:02.200Z,20.50
2018-06-12T13:13:32.193Z,18.87
2018-06-12T13:16:01.597Z,18.53
2018-06-12T13:18:30.691Z,18.87
2018-06-12T13:21:00.123Z,17.80
2018-06-12T13:23:29.404Z,20.67
2018-06-12T13:25:58.565Z,19.80
2018-06-12T13:28:27.818Z,17.33
2018-06-12T13:30:57.163Z,17.70
2018-06-12T13:33:26.548Z,18.07
2018-06-12T13:35:56.554Z,20.10
2018-06-12T13:38:26.706Z,17.10
2018-06-12T13:40:55.908Z,16.97
2018-06-12T13:43:27.532Z,16.20
2018-06-12T13:45:56.636Z,17.43
2018-06-12T13:48:25.784Z,16.23
2018-06-12T13:50:54.964Z,15.03
2018-06-12T13:53:25.310Z,15.70
2018-06-12T13:55:54.754Z,14.37
2018-06-12T13:58:24.679Z,14.57
2018-06-12T14:00:54.745Z,14.50
2018-06-12T14:03:23.862Z,16.83
2018-06-12T14:05:54.287Z,18.10
2018-06-12T14:08:23.512Z,16.73
2018-06-12T14:10:55.095Z,17.13
2018-06-12T14:13:25.524Z,17.33
2018-06-12T14:15:54.908Z,16.90
2018-06-12T14:18:24.443Z,17.40
2018-06-12T14:20:53.534Z,17.73
2018-06-12T14:23:22.698Z,18.40
2018-06-12T14:25:52.351Z,16.40
2018-06-12T14:28:21.999Z,17.17
2018-06-12T14:30:51.390Z,16.23
2018-06-12T14:33:20.736Z,16.50
2018-06-12T14:35:49.880Z,18.20
2018-06-12T14:38:19.204Z,15.07
2018-06-12T14:40:48.264Z,16.13
2018-06-12T14:43:17.627Z,16.73
2018-06-12T14:45:46.989Z,16.13
2018-06-12T14:48:16.212Z,16.27
2018-06-12T14:50:46.324Z,13.93
2018-06-12T14:53:16.308Z,14.40
2018-06-12T14:55:46.216Z,17.70
2018-06-12T14:58:15.398Z,17.87
2018-06-12T15:00:44.755Z,16.80
2018-06-12T15:03:14.323Z,14.33
2018-06-12T15:05:43.654Z,19.67
2018-06-12T15:08:12.998Z,17.80
2018-06-12T15:10:43.187Z,17.33
2018-06-12T15:13:14.692Z,17.83
2018-06-12T15:15:44.846Z,17.23
2018-06-12T15:18:14.135Z,19.80
2018-06-12T15:20:44.651Z,19.17
2018-06-12T15:23:13.866Z,19.87
2018-06-12T15:25:43.297Z,18.33
2018-06-12T15:28:13.324Z,17.93
2018-06-12T15:30:43.253Z,19.27
2018-06-12T15:33:13.502Z,18.53
2018-06-12T15:35:42.684Z,17.63
2018-06-12T15:38:11.993Z,18.00
2018-06-12T15:40:43.269Z,20.10
2018-06-12T15:43:14.626Z,18.47
2018-06-12T15:45:43.862Z,19.10
2018-06-12T15:48:12.890Z,19.03
2018-06-12T15:50:44.138Z,18.87
2018-06-12T15:53:16.307Z,17.87
2018-06-12T15:55:48.131Z,16.70
2018-06-12T15:58:19.113Z,19.87
2018-06-12T16:00:48.242Z,15.80
2018-06-12T16:03:17.482Z,18.80
2018-06-12T16:05:46.837Z,17.73
2018-06-12T16:08:16.149Z,14.67
2018-06-12T16:10:46.404Z,18.00
2018-06-12T16:13:15.468Z,15.07
2018-06-12T16:15:44.662Z,15.80
2018-06-12T16:18:13.729Z,14.60
2018-06-12T16:20:42.953Z,16.30
2018-06-12T16:23:13.105Z,15.87
2018-06-12T16:25:42.998Z,16.00
2018-06-12T16:28:14.017Z,14.87
2018-06-12T16:30:43.043Z,16.83
2018-06-12T16:33:14.896Z,18.03
2018-06-12T16:35:46.239Z,16.90
2018-06-12T16:38:16.292Z,15.30
2018-06-12T16:40:45.161Z,14.10
2018-06-12T16:43:14.387Z,13.53
2018-06-12T16:45:43.602Z,14.47
2018-06-12T16:48:12.954Z,16.07
2018-06-12T16:50:42.612Z,16.57
2018-06-12T16:53:11.935Z,15.17
2018-06-12T16:55:41.111Z,15.97
2018-06-12T16:58:11.833Z,16.80
2018-06-12T17:00:41.077Z,14.97
2018-06-12T17:03:10.151Z,15.20
2018-06-12T17:05:38.943Z,15.60
2018-06-12T17:08:09.987Z,15.40
2018-06-12T17:10:40.163Z,15.77
2018-06-12T17:13:10.023Z,16.97
2018-06-12T17:15:39.275Z,16.03
2018-06-12T17:18:08.501Z,16.80
2018-06-12T17:20:37.674Z,15.40
2018-06-12T17:23:07.842Z,17.27
2018-06-12T17:25:38.218Z,15.70
2018-06-12T17:28:08.237Z,15.70
2018-06-12T17:30:45.721Z,15.53
2018-06-12T17:33:17.462Z,17.47
2018-06-12T17:35:47.596Z,14.87
2018-06-12T17:38:17.360Z,18.27
2018-06-12T17:40:47.032Z,16.40
2018-06-12T17:43:16.387Z,15.57
2018-06-12T17:45:48.476Z,15.70
2018-06-12T17:48:20.212Z,15.57
2018-06-12T17:50:49.448Z,16.20
2018-06-12T17:53:19.658Z,16.00
2018-06-12T17:55:49.852Z,16.57
2018-06-12T17:58:20.102Z,17.83
2018-06-12T18:00:49.622Z,18.67
2018-06-12T18:03:18.824Z,16.50
2018-06-12T18:05:47.977Z,15.83
2018-06-12T18:08:17.356Z,15.93
2018-06-12T18:10:46.476Z,16.03
2018-06-12T18:13:15.826Z,16.93
2018-06-12T18:15:45.189Z,14.20
2018-06-12T18:18:14.407Z,16.37
2018-06-12T18:20:46.575Z,14.30
2018-06-12T18:23:16.944Z,18.07
2018-06-12T18:25:46.125Z,15.30
2018-06-12T18:28:15.569Z,15.10
2018-06-12T18:30:45.475Z,15.43
2018-06-12T18:33:14.853Z,19.00
2018-06-12T18:35:44.920Z,16.03
2018-06-12T18:38:14.080Z,17.53
2018-06-12T18:40:44.323Z,16.17
2018-06-12T18:43:13.459Z,13.90
2018-06-12T18:45:42.616Z,15.43
2018-06-12T18:48:11.783Z,14.63
2018-06-12T18:50:44.161Z,13.40
2018-06-12T18:53:14.445Z,13.10
2018-06-12T18:55:43.727Z,13.17
2018-06-12T18:58:13.058Z,13.93
2018-06-12T19:00:42.255Z,12.87
2018-06-12T19:03:11.579Z,14.50
2018-06-12T19:05:40.805Z,14.27
2018-06-12T19:08:10.919Z,14.57
2018-06-12T19:10:40.890Z,15.03
2018-06-12T19:13:10.084Z,15.43
2018-06-12T19:15:39.240Z,14.97
2018-06-12T19:18:08.653Z,15.77
2018-06-12T19:20:39.013Z,16.23
2018-06-12T19:23:09.098Z,16.30
2018-06-12T19:25:39.715Z,15.70
2018-06-12T19:28:09.028Z,15.23
2018-06-12T19:30:39.149Z,15.93
2018-06-12T19:33:09.393Z,15.37
2018-06-12T19:35:39.838Z,15.50
2018-06-12T19:38:10.007Z,17.17
2018-06-12T19:40:39.312Z,16.37
2018-06-12T19:43:08.403Z,16.60
2018-06-12T19:45:38.611Z,16.13
2018-06-12T19:48:07.900Z,16.90
2018-06-12T19:50:37.131Z,15.10
2018-06-12T19:53:06.533Z,17.57
2018-06-12T19:55:35.435Z,15.50
2018-06-12T19:58:04.510Z,14.57
2018-06-12T20:00:34.678Z,15.30
2018-06-12T20:03:03.941Z,16.33
2018-06-12T20:05:34.025Z,14.53
2018-06-12T20:08:04.305Z,15.63
2018-06-12T20:10:35.153Z,16.00
2018-06-12T20:13:04.451Z,14.33
2018-06-12T20:15:33.511Z,13.37
2018-06-12T20:18:02.804Z,12.87
2018-06-12T20:20:32.037Z,15.03
2018-06-12T20:23:01.743Z,12.93
2018-06-12T20:25:30.845Z,13.90
2018-06-12T20:28:00.170Z,14.43
2018-06-12T20:30:30.375Z,13.10
2018-06-12T20:33:00.601Z,12.87
2018-06-12T20:35:31.102Z,13.50
2018-06-12T20:38:00.581Z,12.50
2018-06-12T20:40:30.708Z,12.63
2018-06-12T20:42:59.580Z,13.03
2018-06-12T20:45:29.385Z,14.20
2018-06-12T20:47:58.786Z,14.90
2018-06-12T20:50:27.975Z,12.07
2018-06-12T20:52:57.987Z,12.43
2018-06-12T20:55:27.371Z,13.87
2018-06-12T20:57:58.357Z,11.83
2018-06-12T21:00:27.579Z,10.87
2018-06-12T21:02:57.193Z,14.40
2018-06-12T21:05:26.286Z,11.73
2018-06-12T21:07:55.390Z,9.30
2018-06-12T21:10:24.591Z,6.40
2018-06-12T21:12:53.771Z,5.47
2018-06-12T21:15:23.732Z,7.00
2018-06-12T21:17:53.739Z,7.00
2018-06-12T21:20:22.884Z,4.17
2018-06-12T21:22:53.272Z,6.87
2018-06-12T21:25:22.733Z,4.33
2018-06-12T21:27:55.082Z,4.23
2018-06-12T21:30:24.393Z,6.07
2018-06-12T21:32:53.549Z,5.70
2018-06-12T21:35:22.688Z,4.87
2018-06-12T21:37:51.991Z,3.30
2018-06-12T21:40:22.322Z,5.27
2018-06-12T21:42:51.412Z,4.17
2018-06-12T21:45:21.571Z,3.43
2018-06-12T21:47:50.764Z,3.93
2018-06-12T21:50:22.067Z,3.60
2018-06-12T21:52:52.444Z,5.53
2018-06-12T21:55:22.490Z,4.77
2018-06-12T21:57:51.714Z,3.60
2018-06-12T22:00:34.804Z,5.00
2018-06-12T22:03:04.895Z,6.17
2018-06-12T22:05:34.552Z,5.17
2018-06-12T22:08:03.605Z,4.47
2018-06-12T22:10:32.829Z,4.93
2018-06-12T22:13:02.197Z,4.57
2018-06-12T22:15:31.465Z,4.70
2018-06-12T22:18:01.662Z,6.03
2018-06-12T22:20:32.348Z,5.30
2018-06-12T22:23:01.421Z,5.33
2018-06-12T22:25:31.537Z,3.47
2018-06-12T22:28:00.597Z,4.30
2018-06-12T22:30:30.260Z,5.03
2018-06-12T22:32:59.418Z,4.63
2018-06-12T22:35:28.545Z,6.33
2018-06-12T22:37:59.658Z,3.43
2018-06-12T22:40:28.832Z,5.07
2018-06-12T22:43:00.429Z,5.93
2018-06-12T22:45:29.615Z,4.67
2018-06-12T22:48:00.667Z,8.53
2018-06-12T22:50:30.512Z,5.13
2018-06-12T22:53:00.018Z,5.60
2018-06-12T22:55:29.127Z,6.47
2018-06-12T22:57:59.324Z,4.60
2018-06-12T23:00:28.584Z,4.60
2018-06-12T23:02:57.705Z,5.70
2018-06-12T23:05:27.861Z,5.60
2018-06-12T23:07:57.887Z,5.50
2018-06-12T23:10:27.930Z,5.27
2018-06-12T23:12:57.209Z,3.97
2018-06-12T23:15:27.181Z,5.70
2018-06-12T23:17:56.352Z,4.57
2018-06-12T23:21:37.465Z,6.30
2018-06-12T23:24:06.772Z,5.63
2018-06-12T23:26:35.843Z,6.27
2018-06-12T23:29:05.878Z,4.83
2018-06-12T23:31:35.282Z,5.83
2018-06-12T23:34:05.497Z,6.10
2018-06-12T23:36:34.743Z,5.63
2018-06-12T23:39:06.482Z,5.63
2018-06-12T23:41:35.543Z,5.87
2018-06-12T23:44:04.647Z,5.33
2018-06-12T23:46:34.143Z,7.23
2018-06-12T23:49:04.625Z,5.47
2018-06-12T23:51:34.933Z,5.27
2018-06-12T23:54:05.904Z,6.17
2018-06-12T23:56:34.995Z,5.03
2018-06-12T23:59:05.549Z,7.83
